sensor_id;sensor_type;location;lat;lon;timestamp;P1;durP1;ratioP1;P2;durP2;ratioP2
11616;SDS011;5864;52.998;9.068;2023-12-29T00:00:11;7.50;;;2.70;;
11616;SDS011;5864;52.998;9.068;2023-12-29T00:02:58;9.03;;;2.30;;
11616;SDS011;5864;52.998;9.068;2023-12-29T00:05:45;7.00;;;2.23;;
11616;SDS011;5864;52.998;9.068;2023-12-29T00:08:31;8.47;;;2.20;;
11616;SDS011;5864;52.998;9.068;2023-12-29T00:11:17;7.27;;;2.20;;
11616;SDS011;5864;52.998;9.068;2023-12-29T00:14:03;8.03;;;2.27;;
11616;SDS011;5864;52.998;9.068;2023-12-29T00:16:48;6.70;;;2.83;;
11616;SDS011;5864;52.998;9.068;2023-12-29T00:19:34;7.17;;;2.33;;
11616;SDS011;5864;52.998;9.068;2023-12-29T00:22:21;5.67;;;2.23;;
11616;SDS011;5864;52.998;9.068;2023-12-29T00:25:07;7.17;;;2.80;;
11616;SDS011;5864;52.998;9.068;2023-12-29T00:27:54;6.47;;;2.80;;
11616;SDS011;5864;52.998;9.068;2023-12-29T00:30:41;7.77;;;2.30;;
11616;SDS011;5864;52.998;9.068;2023-12-29T00:33:27;6.23;;;2.23;;
11616;SDS011;5864;52.998;9.068;2023-12-29T00:36:14;8.73;;;3.27;;
11616;SDS011;5864;52.998;9.068;2023-12-29T00:39:01;11.23;;;2.90;;
11616;SDS011;5864;52.998;9.068;2023-12-29T00:41:47;7.17;;;2.20;;
11616;SDS011;5864;52.998;9.068;2023-12-29T00:44:32;7.57;;;3.03;;
11616;SDS011;5864;52.998;9.068;2023-12-29T00:47:19;6.83;;;2.57;;
11616;SDS011;5864;52.998;9.068;2023-12-29T00:50:07;7.20;;;2.43;;
11616;SDS011;5864;52.998;9.068;2023-12-29T00:52:53;7.77;;;2.50;;
11616;SDS011;5864;52.998;9.068;2023-12-29T00:55:40;9.77;;;2.67;;
11616;SDS011;5864;52.998;9.068;2023-12-29T00:58:26;5.77;;;2.37;;
11616;SDS011;5864;52.998;9.068;2023-12-29T01:01:11;8.40;;;3.10;;
11616;SDS011;5864;52.998;9.068;2023-12-29T01:03:58;7.17;;;2.30;;
11616;SDS011;5864;52.998;9.068;2023-12-29T01:06:44;7.53;;;2.70;;
11616;SDS011;5864;52.998;9.068;2023-12-29T01:09:29;4.47;;;2.27;;
11616;SDS011;5864;52.998;9.068;2023-12-29T01:12:16;7.77;;;2.40;;
11616;SDS011;5864;52.998;9.068;2023-12-29T01:15:02;5.63;;;2.40;;
11616;SDS011;5864;52.998;9.068;2023-12-29T01:17:48;5.40;;;2.00;;
11616;SDS011;5864;52.998;9.068;2023-12-29T01:20:33;6.33;;;2.27;;
11616;SDS011;5864;52.998;9.068;2023-12-29T01:23:19;6.27;;;2.20;;
11616;SDS011;5864;52.998;9.068;2023-12-29T01:26:05;9.23;;;2.67;;
11616;SDS011;5864;52.998;9.068;2023-12-29T01:28:52;5.60;;;2.07;;
11616;SDS011;5864;52.998;9.068;2023-12-29T01:31:38;7.13;;;2.50;;
11616;SDS011;5864;52.998;9.068;2023-12-29T01:34:24;6.63;;;2.70;;
11616;SDS011;5864;52.998;9.068;2023-12-29T01:37:16;6.87;;;2.33;;
11616;SDS011;5864;52.998;9.068;2023-12-29T01:40:01;4.27;;;1.93;;
11616;SDS011;5864;52.998;9.068;2023-12-29T01:42:47;7.60;;;2.70;;
11616;SDS011;5864;52.998;9.068;2023-12-29T01:45:34;7.20;;;2.70;;
11616;SDS011;5864;52.998;9.068;2023-12-29T01:48:21;9.50;;;2.53;;
11616;SDS011;5864;52.998;9.068;2023-12-29T01:51:07;8.10;;;2.57;;
11616;SDS011;5864;52.998;9.068;2023-12-29T01:53:54;6.10;;;2.30;;
11616;SDS011;5864;52.998;9.068;2023-12-29T01:56:42;5.07;;;2.50;;
11616;SDS011;5864;52.998;9.068;2023-12-29T01:59:28;4.87;;;2.27;;
11616;SDS011;5864;52.998;9.068;2023-12-29T02:02:16;6.10;;;2.40;;
11616;SDS011;5864;52.998;9.068;2023-12-29T02:05:02;7.63;;;2.13;;
11616;SDS011;5864;52.998;9.068;2023-12-29T02:07:48;6.90;;;2.30;;
11616;SDS011;5864;52.998;9.068;2023-12-29T02:10:36;5.07;;;2.20;;
11616;SDS011;5864;52.998;9.068;2023-12-29T02:13:22;6.27;;;2.60;;
11616;SDS011;5864;52.998;9.068;2023-12-29T02:16:09;6.40;;;2.30;;
11616;SDS011;5864;52.998;9.068;2023-12-29T02:19:04;11.27;;;2.33;;
11616;SDS011;5864;52.998;9.068;2023-12-29T02:21:59;7.23;;;2.23;;
11616;SDS011;5864;52.998;9.068;2023-12-29T02:24:46;10.87;;;2.57;;
11616;SDS011;5864;52.998;9.068;2023-12-29T02:27:34;9.70;;;2.57;;
11616;SDS011;5864;52.998;9.068;2023-12-29T02:30:29;8.07;;;2.30;;
11616;SDS011;5864;52.998;9.068;2023-12-29T02:33:19;10.20;;;2.87;;
11616;SDS011;5864;52.998;9.068;2023-12-29T02:36:06;9.37;;;2.80;;
11616;SDS011;5864;52.998;9.068;2023-12-29T02:38:53;7.70;;;2.40;;
11616;SDS011;5864;52.998;9.068;2023-12-29T02:41:41;7.13;;;3.00;;
11616;SDS011;5864;52.998;9.068;2023-12-29T02:44:26;7.40;;;2.17;;
11616;SDS011;5864;52.998;9.068;2023-12-29T02:47:12;11.07;;;2.63;;
11616;SDS011;5864;52.998;9.068;2023-12-29T02:49:57;9.73;;;3.20;;
11616;SDS011;5864;52.998;9.068;2023-12-29T02:52:43;8.33;;;2.33;;
11616;SDS011;5864;52.998;9.068;2023-12-29T02:55:29;11.53;;;2.90;;
11616;SDS011;5864;52.998;9.068;2023-12-29T02:58:16;9.50;;;2.80;;
11616;SDS011;5864;52.998;9.068;2023-12-29T03:01:01;7.13;;;2.70;;
11616;SDS011;5864;52.998;9.068;2023-12-29T03:03:48;8.87;;;2.30;;
11616;SDS011;5864;52.998;9.068;2023-12-29T03:06:34;9.60;;;2.37;;
11616;SDS011;5864;52.998;9.068;2023-12-29T03:09:20;8.40;;;2.10;;
11616;SDS011;5864;52.998;9.068;2023-12-29T03:12:06;14.17;;;2.60;;
11616;SDS011;5864;52.998;9.068;2023-12-29T03:14:53;8.90;;;2.17;;
11616;SDS011;5864;52.998;9.068;2023-12-29T03:17:39;6.43;;;2.33;;
11616;SDS011;5864;52.998;9.068;2023-12-29T03:20:24;7.97;;;2.17;;
11616;SDS011;5864;52.998;9.068;2023-12-29T03:23:10;7.77;;;2.53;;
11616;SDS011;5864;52.998;9.068;2023-12-29T03:25:56;5.23;;;2.17;;
11616;SDS011;5864;52.998;9.068;2023-12-29T03:28:41;5.40;;;2.20;;
11616;SDS011;5864;52.998;9.068;2023-12-29T03:31:28;5.97;;;2.30;;
11616;SDS011;5864;52.998;9.068;2023-12-29T03:34:14;6.23;;;2.50;;
11616;SDS011;5864;52.998;9.068;2023-12-29T03:36:59;7.77;;;2.50;;
11616;SDS011;5864;52.998;9.068;2023-12-29T03:39:45;10.30;;;2.80;;
11616;SDS011;5864;52.998;9.068;2023-12-29T03:42:31;7.43;;;2.03;;
11616;SDS011;5864;52.998;9.068;2023-12-29T03:45:17;7.70;;;3.03;;
11616;SDS011;5864;52.998;9.068;2023-12-29T03:48:04;7.23;;;2.00;;
11616;SDS011;5864;52.998;9.068;2023-12-29T03:50:53;8.47;;;2.40;;
11616;SDS011;5864;52.998;9.068;2023-12-29T03:53:39;6.73;;;2.17;;
11616;SDS011;5864;52.998;9.068;2023-12-29T03:56:25;9.60;;;2.40;;
11616;SDS011;5864;52.998;9.068;2023-12-29T03:59:11;5.20;;;1.80;;
11616;SDS011;5864;52.998;9.068;2023-12-29T04:01:57;5.43;;;1.80;;
11616;SDS011;5864;52.998;9.068;2023-12-29T04:04:44;8.27;;;2.63;;
11616;SDS011;5864;52.998;9.068;2023-12-29T04:07:29;7.10;;;2.70;;
11616;SDS011;5864;52.998;9.068;2023-12-29T04:10:15;6.53;;;2.00;;
11616;SDS011;5864;52.998;9.068;2023-12-29T04:13:00;7.83;;;1.80;;
11616;SDS011;5864;52.998;9.068;2023-12-29T04:15:46;4.60;;;1.90;;
11616;SDS011;5864;52.998;9.068;2023-12-29T04:18:32;5.97;;;2.20;;
11616;SDS011;5864;52.998;9.068;2023-12-29T04:21:19;5.13;;;1.93;;
11616;SDS011;5864;52.998;9.068;2023-12-29T04:24:05;7.07;;;1.93;;
11616;SDS011;5864;52.998;9.068;2023-12-29T04:26:51;4.20;;;1.80;;
11616;SDS011;5864;52.998;9.068;2023-12-29T04:29:36;6.40;;;1.80;;
11616;SDS011;5864;52.998;9.068;2023-12-29T04:32:22;4.20;;;1.83;;
11616;SDS011;5864;52.998;9.068;2023-12-29T04:35:07;5.23;;;1.70;;
11616;SDS011;5864;52.998;9.068;2023-12-29T04:37:57;6.00;;;2.00;;
11616;SDS011;5864;52.998;9.068;2023-12-29T04:40:43;7.43;;;1.93;;
11616;SDS011;5864;52.998;9.068;2023-12-29T04:43:28;6.43;;;2.00;;
11616;SDS011;5864;52.998;9.068;2023-12-29T04:46:14;5.70;;;1.97;;
11616;SDS011;5864;52.998;9.068;2023-12-29T04:49:00;8.00;;;1.67;;
11616;SDS011;5864;52.998;9.068;2023-12-29T04:51:46;4.37;;;1.77;;
11616;SDS011;5864;52.998;9.068;2023-12-29T04:54:33;4.27;;;2.00;;
11616;SDS011;5864;52.998;9.068;2023-12-29T04:57:19;4.03;;;1.87;;
11616;SDS011;5864;52.998;9.068;2023-12-29T05:00:05;7.73;;;1.90;;
11616;SDS011;5864;52.998;9.068;2023-12-29T05:02:52;3.77;;;1.70;;
11616;SDS011;5864;52.998;9.068;2023-12-29T05:05:37;5.73;;;1.70;;
11616;SDS011;5864;52.998;9.068;2023-12-29T05:08:23;4.83;;;1.70;;
11616;SDS011;5864;52.998;9.068;2023-12-29T05:11:10;3.63;;;1.63;;
11616;SDS011;5864;52.998;9.068;2023-12-29T05:13:56;5.77;;;1.80;;
11616;SDS011;5864;52.998;9.068;2023-12-29T05:16:42;3.20;;;1.73;;
11616;SDS011;5864;52.998;9.068;2023-12-29T05:19:27;4.33;;;1.67;;
11616;SDS011;5864;52.998;9.068;2023-12-29T05:22:13;4.00;;;1.83;;
11616;SDS011;5864;52.998;9.068;2023-12-29T05:25:01;6.60;;;1.73;;
11616;SDS011;5864;52.998;9.068;2023-12-29T05:27:49;3.23;;;1.80;;
11616;SDS011;5864;52.998;9.068;2023-12-29T05:30:35;3.67;;;1.70;;
11616;SDS011;5864;52.998;9.068;2023-12-29T05:33:21;6.13;;;1.87;;
11616;SDS011;5864;52.998;9.068;2023-12-29T05:36:07;7.93;;;2.23;;
11616;SDS011;5864;52.998;9.068;2023-12-29T05:38:55;9.07;;;2.60;;
11616;SDS011;5864;52.998;9.068;2023-12-29T05:41:41;5.30;;;1.90;;
11616;SDS011;5864;52.998;9.068;2023-12-29T05:44:28;6.67;;;1.93;;
11616;SDS011;5864;52.998;9.068;2023-12-29T05:47:14;6.23;;;1.90;;
11616;SDS011;5864;52.998;9.068;2023-12-29T05:50:00;7.97;;;2.17;;
11616;SDS011;5864;52.998;9.068;2023-12-29T05:52:46;8.83;;;2.57;;
11616;SDS011;5864;52.998;9.068;2023-12-29T05:55:35;9.23;;;2.50;;
11616;SDS011;5864;52.998;9.068;2023-12-29T05:58:21;12.47;;;2.50;;
11616;SDS011;5864;52.998;9.068;2023-12-29T06:01:08;8.37;;;2.70;;
11616;SDS011;5864;52.998;9.068;2023-12-29T06:03:54;7.87;;;2.60;;
11616;SDS011;5864;52.998;9.068;2023-12-29T06:06:41;6.27;;;2.13;;
11616;SDS011;5864;52.998;9.068;2023-12-29T06:09:27;8.83;;;3.00;;
11616;SDS011;5864;52.998;9.068;2023-12-29T06:12:13;6.07;;;2.50;;
11616;SDS011;5864;52.998;9.068;2023-12-29T06:14:59;5.57;;;1.90;;
11616;SDS011;5864;52.998;9.068;2023-12-29T06:17:46;8.40;;;2.60;;
11616;SDS011;5864;52.998;9.068;2023-12-29T06:20:31;7.83;;;2.23;;
11616;SDS011;5864;52.998;9.068;2023-12-29T06:23:17;11.13;;;3.20;;
11616;SDS011;5864;52.998;9.068;2023-12-29T06:26:04;4.13;;;2.20;;
11616;SDS011;5864;52.998;9.068;2023-12-29T06:28:49;7.10;;;2.50;;
11616;SDS011;5864;52.998;9.068;2023-12-29T06:31:35;8.47;;;2.70;;
11616;SDS011;5864;52.998;9.068;2023-12-29T06:34:26;9.30;;;2.43;;
11616;SDS011;5864;52.998;9.068;2023-12-29T06:37:12;17.50;;;3.30;;
11616;SDS011;5864;52.998;9.068;2023-12-29T06:39:57;9.00;;;2.97;;
11616;SDS011;5864;52.998;9.068;2023-12-29T06:42:43;9.67;;;2.50;;
11616;SDS011;5864;52.998;9.068;2023-12-29T06:45:30;11.03;;;2.37;;
11616;SDS011;5864;52.998;9.068;2023-12-29T06:48:16;9.47;;;2.60;;
11616;SDS011;5864;52.998;9.068;2023-12-29T06:51:03;8.63;;;2.20;;
11616;SDS011;5864;52.998;9.068;2023-12-29T06:53:49;11.10;;;2.87;;
11616;SDS011;5864;52.998;9.068;2023-12-29T06:56:35;10.07;;;2.83;;
11616;SDS011;5864;52.998;9.068;2023-12-29T06:59:21;7.77;;;2.17;;
11616;SDS011;5864;52.998;9.068;2023-12-29T07:02:07;10.07;;;2.57;;
11616;SDS011;5864;52.998;9.068;2023-12-29T07:04:52;8.30;;;2.40;;
11616;SDS011;5864;52.998;9.068;2023-12-29T07:07:40;7.73;;;2.33;;
11616;SDS011;5864;52.998;9.068;2023-12-29T07:10:26;7.73;;;1.90;;
11616;SDS011;5864;52.998;9.068;2023-12-29T07:13:12;9.67;;;2.97;;
11616;SDS011;5864;52.998;9.068;2023-12-29T07:15:58;11.47;;;2.50;;
11616;SDS011;5864;52.998;9.068;2023-12-29T07:18:44;5.77;;;2.37;;
11616;SDS011;5864;52.998;9.068;2023-12-29T07:21:29;7.27;;;2.10;;
11616;SDS011;5864;52.998;9.068;2023-12-29T07:24:16;7.27;;;2.03;;
11616;SDS011;5864;52.998;9.068;2023-12-29T07:27:02;9.20;;;2.50;;
11616;SDS011;5864;52.998;9.068;2023-12-29T07:29:48;10.07;;;2.77;;
11616;SDS011;5864;52.998;9.068;2023-12-29T07:32:34;12.10;;;2.80;;
11616;SDS011;5864;52.998;9.068;2023-12-29T07:35:20;14.20;;;2.97;;
11616;SDS011;5864;52.998;9.068;2023-12-29T07:38:06;9.67;;;2.60;;
11616;SDS011;5864;52.998;9.068;2023-12-29T07:40:53;13.20;;;3.07;;
11616;SDS011;5864;52.998;9.068;2023-12-29T07:43:38;11.73;;;3.00;;
11616;SDS011;5864;52.998;9.068;2023-12-29T07:46:24;14.67;;;4.07;;
11616;SDS011;5864;52.998;9.068;2023-12-29T07:49:10;11.37;;;3.40;;
11616;SDS011;5864;52.998;9.068;2023-12-29T07:51:55;9.53;;;2.23;;
11616;SDS011;5864;52.998;9.068;2023-12-29T07:54:43;7.57;;;2.30;;
11616;SDS011;5864;52.998;9.068;2023-12-29T07:57:30;13.77;;;3.13;;
11616;SDS011;5864;52.998;9.068;2023-12-29T08:00:16;7.37;;;2.37;;
11616;SDS011;5864;52.998;9.068;2023-12-29T08:03:02;9.77;;;2.53;;
11616;SDS011;5864;52.998;9.068;2023-12-29T08:05:49;9.77;;;2.67;;
11616;SDS011;5864;52.998;9.068;2023-12-29T08:08:35;12.10;;;3.07;;
11616;SDS011;5864;52.998;9.068;2023-12-29T08:11:20;11.20;;;2.80;;
11616;SDS011;5864;52.998;9.068;2023-12-29T08:14:07;6.73;;;2.23;;
11616;SDS011;5864;52.998;9.068;2023-12-29T08:16:53;11.33;;;2.77;;
11616;SDS011;5864;52.998;9.068;2023-12-29T08:19:40;8.90;;;2.33;;
11616;SDS011;5864;52.998;9.068;2023-12-29T08:22:29;13.60;;;3.27;;
11616;SDS011;5864;52.998;9.068;2023-12-29T08:25:16;8.77;;;2.77;;
11616;SDS011;5864;52.998;9.068;2023-12-29T08:28:01;10.83;;;3.03;;
11616;SDS011;5864;52.998;9.068;2023-12-29T08:30:48;9.20;;;2.40;;
11616;SDS011;5864;52.998;9.068;2023-12-29T08:33:34;8.33;;;2.80;;
11616;SDS011;5864;52.998;9.068;2023-12-29T08:36:20;9.07;;;2.67;;
11616;SDS011;5864;52.998;9.068;2023-12-29T08:39:05;13.97;;;2.60;;
11616;SDS011;5864;52.998;9.068;2023-12-29T08:41:51;12.80;;;2.97;;
11616;SDS011;5864;52.998;9.068;2023-12-29T08:44:37;9.77;;;2.73;;
11616;SDS011;5864;52.998;9.068;2023-12-29T08:47:24;10.87;;;3.73;;
11616;SDS011;5864;52.998;9.068;2023-12-29T08:50:10;9.87;;;2.80;;
11616;SDS011;5864;52.998;9.068;2023-12-29T08:52:56;17.63;;;2.97;;
11616;SDS011;5864;52.998;9.068;2023-12-29T08:55:42;8.40;;;2.70;;
11616;SDS011;5864;52.998;9.068;2023-12-29T08:58:28;9.40;;;2.90;;
11616;SDS011;5864;52.998;9.068;2023-12-29T09:01:14;17.97;;;3.50;;
11616;SDS011;5864;52.998;9.068;2023-12-29T09:04:01;11.40;;;3.40;;
11616;SDS011;5864;52.998;9.068;2023-12-29T09:06:46;11.00;;;3.27;;
11616;SDS011;5864;52.998;9.068;2023-12-29T09:09:32;11.27;;;2.90;;
11616;SDS011;5864;52.998;9.068;2023-12-29T09:12:18;11.30;;;3.20;;
11616;SDS011;5864;52.998;9.068;2023-12-29T09:15:05;10.97;;;3.37;;
11616;SDS011;5864;52.998;9.068;2023-12-29T09:17:50;6.40;;;2.10;;
11616;SDS011;5864;52.998;9.068;2023-12-29T09:20:37;7.37;;;2.10;;
11616;SDS011;5864;52.998;9.068;2023-12-29T09:23:23;9.33;;;2.17;;
11616;SDS011;5864;52.998;9.068;2023-12-29T09:26:09;5.93;;;2.30;;
11616;SDS011;5864;52.998;9.068;2023-12-29T09:28:55;3.90;;;1.60;;
11616;SDS011;5864;52.998;9.068;2023-12-29T09:31:41;3.37;;;1.80;;
11616;SDS011;5864;52.998;9.068;2023-12-29T09:34:27;8.47;;;2.10;;
11616;SDS011;5864;52.998;9.068;2023-12-29T09:37:14;7.63;;;2.43;;
11616;SDS011;5864;52.998;9.068;2023-12-29T09:39:59;11.23;;;2.33;;
11616;SDS011;5864;52.998;9.068;2023-12-29T09:42:46;7.30;;;2.53;;
11616;SDS011;5864;52.998;9.068;2023-12-29T09:45:33;8.73;;;2.70;;
11616;SDS011;5864;52.998;9.068;2023-12-29T09:48:22;10.80;;;2.67;;
11616;SDS011;5864;52.998;9.068;2023-12-29T09:51:10;8.47;;;2.67;;
11616;SDS011;5864;52.998;9.068;2023-12-29T09:53:57;10.60;;;3.20;;
11616;SDS011;5864;52.998;9.068;2023-12-29T09:56:43;7.60;;;3.00;;
11616;SDS011;5864;52.998;9.068;2023-12-29T09:59:28;7.83;;;2.60;;
11616;SDS011;5864;52.998;9.068;2023-12-29T10:02:15;7.10;;;3.10;;
11616;SDS011;5864;52.998;9.068;2023-12-29T10:05:01;12.70;;;3.33;;
11616;SDS011;5864;52.998;9.068;2023-12-29T10:07:48;29.77;;;5.90;;
11616;SDS011;5864;52.998;9.068;2023-12-29T10:10:36;18.03;;;3.90;;
11616;SDS011;5864;52.998;9.068;2023-12-29T10:13:24;46.43;;;6.70;;
11616;SDS011;5864;52.998;9.068;2023-12-29T10:16:13;16.40;;;3.53;;
11616;SDS011;5864;52.998;9.068;2023-12-29T10:19:06;8.87;;;2.60;;
11616;SDS011;5864;52.998;9.068;2023-12-29T10:22:06;6.97;;;2.20;;
11616;SDS011;5864;52.998;9.068;2023-12-29T10:24:56;8.60;;;2.57;;
11616;SDS011;5864;52.998;9.068;2023-12-29T10:27:43;5.57;;;2.10;;
11616;SDS011;5864;52.998;9.068;2023-12-29T10:30:29;5.10;;;1.90;;
11616;SDS011;5864;52.998;9.068;2023-12-29T10:33:18;8.07;;;1.90;;
11616;SDS011;5864;52.998;9.068;2023-12-29T10:36:06;6.60;;;1.83;;
11616;SDS011;5864;52.998;9.068;2023-12-29T10:39:05;5.30;;;2.07;;
11616;SDS011;5864;52.998;9.068;2023-12-29T10:41:53;7.53;;;2.27;;
11616;SDS011;5864;52.998;9.068;2023-12-29T10:44:49;3.83;;;1.67;;
11616;SDS011;5864;52.998;9.068;2023-12-29T10:47:50;6.37;;;2.23;;
11616;SDS011;5864;52.998;9.068;2023-12-29T10:50:43;4.27;;;1.70;;
11616;SDS011;5864;52.998;9.068;2023-12-29T10:53:29;3.57;;;1.60;;
11616;SDS011;5864;52.998;9.068;2023-12-29T10:56:17;3.33;;;1.20;;
11616;SDS011;5864;52.998;9.068;2023-12-29T10:59:05;2.97;;;1.03;;
11616;SDS011;5864;52.998;9.068;2023-12-29T11:01:53;4.47;;;1.50;;
11616;SDS011;5864;52.998;9.068;2023-12-29T11:04:39;1.93;;;1.30;;
11616;SDS011;5864;52.998;9.068;2023-12-29T11:07:30;4.57;;;2.07;;
11616;SDS011;5864;52.998;9.068;2023-12-29T11:10:16;4.77;;;1.27;;
11616;SDS011;5864;52.998;9.068;2023-12-29T11:13:03;5.73;;;2.43;;
11616;SDS011;5864;52.998;9.068;2023-12-29T11:15:49;5.47;;;1.93;;
11616;SDS011;5864;52.998;9.068;2023-12-29T11:18:38;2.87;;;1.50;;
11616;SDS011;5864;52.998;9.068;2023-12-29T11:21:26;4.90;;;1.90;;
11616;SDS011;5864;52.998;9.068;2023-12-29T11:24:12;4.87;;;2.00;;
11616;SDS011;5864;52.998;9.068;2023-12-29T11:26:58;6.57;;;2.30;;
11616;SDS011;5864;52.998;9.068;2023-12-29T11:29:44;5.60;;;2.27;;
11616;SDS011;5864;52.998;9.068;2023-12-29T11:32:41;4.10;;;1.83;;
11616;SDS011;5864;52.998;9.068;2023-12-29T11:35:33;5.10;;;1.70;;
11616;SDS011;5864;52.998;9.068;2023-12-29T11:38:24;3.20;;;1.90;;
11616;SDS011;5864;52.998;9.068;2023-12-29T11:41:27;4.03;;;1.67;;
11616;SDS011;5864;52.998;9.068;2023-12-29T11:44:24;7.10;;;2.37;;
11616;SDS011;5864;52.998;9.068;2023-12-29T11:47:26;7.37;;;2.10;;
11616;SDS011;5864;52.998;9.068;2023-12-29T11:50:26;3.63;;;1.33;;
11616;SDS011;5864;52.998;9.068;2023-12-29T11:53:30;5.37;;;1.83;;
11616;SDS011;5864;52.998;9.068;2023-12-29T11:56:16;5.17;;;1.80;;
11616;SDS011;5864;52.998;9.068;2023-12-29T11:59:14;5.70;;;1.43;;
11616;SDS011;5864;52.998;9.068;2023-12-29T12:02:01;1.70;;;1.10;;
11616;SDS011;5864;52.998;9.068;2023-12-29T12:04:51;1.27;;;1.07;;
11616;SDS011;5864;52.998;9.068;2023-12-29T12:10:51;3.00;;;1.20;;
11616;SDS011;5864;52.998;9.068;2023-12-29T12:13:43;3.90;;;1.40;;
11616;SDS011;5864;52.998;9.068;2023-12-29T12:16:48;3.93;;;1.20;;
11616;SDS011;5864;52.998;9.068;2023-12-29T12:19:34;4.83;;;1.30;;
11616;SDS011;5864;52.998;9.068;2023-12-29T12:22:21;2.03;;;1.30;;
11616;SDS011;5864;52.998;9.068;2023-12-29T12:25:08;1.33;;;1.00;;
11616;SDS011;5864;52.998;9.068;2023-12-29T12:27:58;3.53;;;1.33;;
11616;SDS011;5864;52.998;9.068;2023-12-29T12:30:44;3.13;;;1.53;;
11616;SDS011;5864;52.998;9.068;2023-12-29T12:33:30;4.43;;;1.30;;
11616;SDS011;5864;52.998;9.068;2023-12-29T12:36:16;2.40;;;1.37;;
11616;SDS011;5864;52.998;9.068;2023-12-29T12:39:02;5.53;;;1.60;;
11616;SDS011;5864;52.998;9.068;2023-12-29T12:41:47;3.30;;;1.50;;
11616;SDS011;5864;52.998;9.068;2023-12-29T12:44:34;8.10;;;2.13;;
11616;SDS011;5864;52.998;9.068;2023-12-29T12:47:27;3.77;;;1.40;;
11616;SDS011;5864;52.998;9.068;2023-12-29T12:50:19;6.43;;;1.53;;
11616;SDS011;5864;52.998;9.068;2023-12-29T12:53:05;3.90;;;1.57;;
11616;SDS011;5864;52.998;9.068;2023-12-29T12:55:53;7.50;;;1.90;;
11616;SDS011;5864;52.998;9.068;2023-12-29T12:58:39;5.17;;;1.37;;
11616;SDS011;5864;52.998;9.068;2023-12-29T13:01:27;4.27;;;1.33;;
11616;SDS011;5864;52.998;9.068;2023-12-29T13:04:15;6.00;;;1.70;;
11616;SDS011;5864;52.998;9.068;2023-12-29T13:07:02;7.67;;;1.53;;
11616;SDS011;5864;52.998;9.068;2023-12-29T13:09:48;6.47;;;1.83;;
11616;SDS011;5864;52.998;9.068;2023-12-29T13:12:36;5.70;;;1.57;;
11616;SDS011;5864;52.998;9.068;2023-12-29T13:15:22;6.47;;;1.50;;
11616;SDS011;5864;52.998;9.068;2023-12-29T13:18:09;6.23;;;1.80;;
11616;SDS011;5864;52.998;9.068;2023-12-29T13:20:54;5.27;;;1.90;;
11616;SDS011;5864;52.998;9.068;2023-12-29T13:23:41;6.50;;;2.40;;
11616;SDS011;5864;52.998;9.068;2023-12-29T13:26:27;9.03;;;2.00;;
11616;SDS011;5864;52.998;9.068;2023-12-29T13:29:14;2.87;;;1.60;;
11616;SDS011;5864;52.998;9.068;2023-12-29T13:32:00;5.70;;;1.90;;
11616;SDS011;5864;52.998;9.068;2023-12-29T13:34:52;4.13;;;1.80;;
11616;SDS011;5864;52.998;9.068;2023-12-29T13:37:47;4.50;;;2.17;;
11616;SDS011;5864;52.998;9.068;2023-12-29T13:40:41;5.53;;;1.93;;
11616;SDS011;5864;52.998;9.068;2023-12-29T13:43:30;5.23;;;1.60;;
11616;SDS011;5864;52.998;9.068;2023-12-29T13:46:19;3.60;;;1.80;;
11616;SDS011;5864;52.998;9.068;2023-12-29T13:49:05;2.07;;;1.53;;
11616;SDS011;5864;52.998;9.068;2023-12-29T13:51:52;2.60;;;1.50;;
11616;SDS011;5864;52.998;9.068;2023-12-29T13:54:41;4.60;;;1.70;;
11616;SDS011;5864;52.998;9.068;2023-12-29T13:57:30;2.33;;;1.77;;
11616;SDS011;5864;52.998;9.068;2023-12-29T14:00:17;3.50;;;1.70;;
11616;SDS011;5864;52.998;9.068;2023-12-29T14:03:06;3.80;;;1.83;;
11616;SDS011;5864;52.998;9.068;2023-12-29T14:05:55;5.90;;;2.47;;
11616;SDS011;5864;52.998;9.068;2023-12-29T14:08:45;4.53;;;2.10;;
11616;SDS011;5864;52.998;9.068;2023-12-29T14:11:31;5.50;;;2.23;;
11616;SDS011;5864;52.998;9.068;2023-12-29T14:14:21;5.10;;;2.40;;
11616;SDS011;5864;52.998;9.068;2023-12-29T14:17:07;5.53;;;2.40;;
11616;SDS011;5864;52.998;9.068;2023-12-29T14:19:54;3.77;;;2.33;;
11616;SDS011;5864;52.998;9.068;2023-12-29T14:22:44;6.40;;;2.87;;
11616;SDS011;5864;52.998;9.068;2023-12-29T14:25:31;6.67;;;3.20;;
11616;SDS011;5864;52.998;9.068;2023-12-29T14:28:20;6.67;;;3.70;;
11616;SDS011;5864;52.998;9.068;2023-12-29T14:31:06;8.70;;;3.00;;
11616;SDS011;5864;52.998;9.068;2023-12-29T14:33:52;8.33;;;3.43;;
11616;SDS011;5864;52.998;9.068;2023-12-29T14:36:38;7.40;;;3.27;;
11616;SDS011;5864;52.998;9.068;2023-12-29T14:39:25;10.87;;;3.80;;
11616;SDS011;5864;52.998;9.068;2023-12-29T14:42:12;7.10;;;3.17;;
11616;SDS011;5864;52.998;9.068;2023-12-29T14:44:58;7.77;;;3.10;;
11616;SDS011;5864;52.998;9.068;2023-12-29T14:47:44;9.17;;;3.13;;
11616;SDS011;5864;52.998;9.068;2023-12-29T14:50:30;6.27;;;2.30;;
11616;SDS011;5864;52.998;9.068;2023-12-29T14:53:16;6.10;;;2.03;;
11616;SDS011;5864;52.998;9.068;2023-12-29T14:56:02;9.30;;;3.67;;
11616;SDS011;5864;52.998;9.068;2023-12-29T14:58:50;8.73;;;3.30;;
11616;SDS011;5864;52.998;9.068;2023-12-29T15:01:35;5.17;;;2.67;;
11616;SDS011;5864;52.998;9.068;2023-12-29T15:04:21;4.87;;;2.47;;
11616;SDS011;5864;52.998;9.068;2023-12-29T15:07:06;6.77;;;2.30;;
11616;SDS011;5864;52.998;9.068;2023-12-29T15:09:52;7.17;;;2.73;;
11616;SDS011;5864;52.998;9.068;2023-12-29T15:12:37;7.47;;;2.70;;
11616;SDS011;5864;52.998;9.068;2023-12-29T15:15:25;8.02;;;3.10;;
11616;SDS011;5864;52.998;9.068;2023-12-29T15:18:11;3.83;;;2.20;;
11616;SDS011;5864;52.998;9.068;2023-12-29T15:20:56;4.50;;;1.87;;
11616;SDS011;5864;52.998;9.068;2023-12-29T15:23:43;9.60;;;2.40;;
11616;SDS011;5864;52.998;9.068;2023-12-29T15:26:29;9.13;;;2.30;;
11616;SDS011;5864;52.998;9.068;2023-12-29T15:29:15;5.27;;;1.93;;
11616;SDS011;5864;52.998;9.068;2023-12-29T15:32:02;4.40;;;2.10;;
11616;SDS011;5864;52.998;9.068;2023-12-29T15:34:48;6.13;;;3.00;;
11616;SDS011;5864;52.998;9.068;2023-12-29T15:37:34;6.40;;;2.20;;
11616;SDS011;5864;52.998;9.068;2023-12-29T15:40:20;9.43;;;2.17;;
11616;SDS011;5864;52.998;9.068;2023-12-29T15:43:05;6.50;;;2.60;;
11616;SDS011;5864;52.998;9.068;2023-12-29T15:45:52;4.47;;;2.73;;
11616;SDS011;5864;52.998;9.068;2023-12-29T15:48:39;5.73;;;2.37;;
11616;SDS011;5864;52.998;9.068;2023-12-29T15:51:24;6.40;;;2.27;;
11616;SDS011;5864;52.998;9.068;2023-12-29T15:54:10;4.20;;;1.77;;
11616;SDS011;5864;52.998;9.068;2023-12-29T15:56:56;6.43;;;2.50;;
11616;SDS011;5864;52.998;9.068;2023-12-29T15:59:41;6.67;;;2.20;;
11616;SDS011;5864;52.998;9.068;2023-12-29T16:02:28;5.60;;;2.03;;
11616;SDS011;5864;52.998;9.068;2023-12-29T16:05:16;5.50;;;2.00;;
11616;SDS011;5864;52.998;9.068;2023-12-29T16:08:02;7.33;;;3.33;;
11616;SDS011;5864;52.998;9.068;2023-12-29T16:10:48;6.33;;;2.67;;
11616;SDS011;5864;52.998;9.068;2023-12-29T16:13:34;6.00;;;1.80;;
11616;SDS011;5864;52.998;9.068;2023-12-29T16:16:20;3.90;;;1.97;;
11616;SDS011;5864;52.998;9.068;2023-12-29T16:19:10;5.87;;;3.20;;
11616;SDS011;5864;52.998;9.068;2023-12-29T16:21:57;7.90;;;2.43;;
11616;SDS011;5864;52.998;9.068;2023-12-29T16:24:43;5.13;;;2.87;;
11616;SDS011;5864;52.998;9.068;2023-12-29T16:27:28;8.07;;;3.77;;
11616;SDS011;5864;52.998;9.068;2023-12-29T16:30:14;7.47;;;2.90;;
11616;SDS011;5864;52.998;9.068;2023-12-29T16:33:00;8.97;;;3.37;;
11616;SDS011;5864;52.998;9.068;2023-12-29T16:35:46;8.00;;;2.87;;
11616;SDS011;5864;52.998;9.068;2023-12-29T16:38:33;6.70;;;2.83;;
11616;SDS011;5864;52.998;9.068;2023-12-29T16:41:18;6.00;;;2.77;;
11616;SDS011;5864;52.998;9.068;2023-12-29T16:44:05;5.90;;;1.97;;
11616;SDS011;5864;52.998;9.068;2023-12-29T16:46:51;4.23;;;2.00;;
11616;SDS011;5864;52.998;9.068;2023-12-29T16:49:37;8.40;;;2.30;;
11616;SDS011;5864;52.998;9.068;2023-12-29T16:52:22;5.43;;;1.93;;
11616;SDS011;5864;52.998;9.068;2023-12-29T16:55:09;4.40;;;2.00;;
11616;SDS011;5864;52.998;9.068;2023-12-29T16:57:54;6.20;;;2.60;;
11616;SDS011;5864;52.998;9.068;2023-12-29T17:00:40;10.20;;;2.30;;
11616;SDS011;5864;52.998;9.068;2023-12-29T17:03:25;5.63;;;1.90;;